KHNB/HNB METAR and TAF weather

Enter ICAO airport designator
Station Type Date Time Source
KHNB METAR 2020/12/06 00:56 UTC NOAA

KHNB 060056Z AUTO 00000KT 10SM CLR 02/M02 A3011 RMK AO2 SLP201 T00221017 FZRANO


Station Type Date Time Source
KHNB Decoded METAR 2020/12/06 00:56 UTC NOAA

Huntingburg, IN, United States (KHNB) 38-15N 086-57W
Dec 05, 2020 - 07:56 PM EST / 2020.12.06 0056 UTC
Wind: Calm:0
Visibility: 10 mile(s):0
Sky conditions: clear
Temperature: 36.0 F (2.2 C)
Dew Point: 28.9 F (-1.7 C)
Relative Humidity: 75%
Pressure (altimeter): 30.11 in. Hg (1019 hPa)
ob: KHNB 060056Z AUTO 00000KT 10SM CLR 02/M02 A3011 RMK AO2 SLP201 T00221017 FZRANO
cycle: 1

Station Type Date Time Source
KHNB TAF 2020/12/05 18:21 UTC NOAA

TAF KHNB 051720Z 0518/0618 35005KT P6SM SKC
FM061000 VRB04KT P6SM BKN050

Example: see airport list